createdAt,value
2018-08-23T00:01:24.342Z,99957.50
2018-08-23T00:03:53.330Z,99949.89
2018-08-23T00:11:34.130Z,99943.67
2018-08-23T00:14:02.938Z,99943.67
2018-08-23T00:16:52.041Z,99944.45
2018-08-23T00:19:21.019Z,99938.78
2018-08-23T00:21:50.711Z,99936.88
2018-08-23T00:24:20.419Z,99936.88
2018-08-23T00:26:52.731Z,99935.80
2018-08-23T00:29:29.528Z,99931.42
2018-08-23T00:32:00.381Z,99928.45
2018-08-23T00:34:30.227Z,99930.90
2018-08-23T00:36:59.215Z,99928.17
2018-08-23T00:39:28.724Z,99930.09
2018-08-23T00:42:02.697Z,99930.09
2018-08-23T00:46:55.276Z,99920.32
2018-08-23T00:49:28.115Z,99919.50
2018-08-23T00:51:56.691Z,99917.59
2018-08-23T00:54:26.129Z,99919.50
2018-08-23T00:56:54.716Z,99912.98
2018-08-23T02:28:08.951Z,99832.87
2018-08-23T02:30:54.217Z,99828.61
2018-08-23T02:33:22.927Z,99831.86
2018-08-23T02:36:09.069Z,99831.89
2018-08-23T02:38:37.801Z,99827.32
2018-08-23T02:41:07.253Z,99824.07
2018-08-23T02:43:35.960Z,99825.97
2018-08-23T02:46:04.695Z,99821.91
2018-08-23T02:48:33.329Z,99822.45
2018-08-23T02:51:01.997Z,99817.87
2018-08-23T02:53:43.036Z,99820.84
2018-08-23T02:56:14.316Z,99819.80
2018-08-23T02:58:54.151Z,99813.83
2018-08-23T03:01:23.176Z,99817.63
2018-08-23T03:04:03.016Z,99821.17
2018-08-23T03:06:36.936Z,99818.73
2018-08-23T03:09:07.700Z,99819.81
2018-08-23T03:11:38.249Z,99814.66
2018-08-23T03:14:07.321Z,99810.08
2018-08-23T03:16:48.775Z,99811.16
2018-08-23T03:19:17.547Z,99813.58
2018-08-23T03:21:46.620Z,99812.50
2018-08-23T03:24:19.674Z,99824.15
2018-08-23T03:26:48.717Z,99818.75
2018-08-23T03:29:17.444Z,99818.72
2018-08-23T03:31:46.735Z,99820.34
2018-08-23T03:34:15.349Z,99815.50
2018-08-23T03:36:44.274Z,99820.90
2018-08-23T03:39:14.021Z,99820.36
2018-08-23T03:41:42.609Z,99819.81
2018-08-23T03:44:24.736Z,99816.56
2018-08-23T03:46:55.581Z,99819.79
2018-08-23T03:49:31.566Z,99815.75
2018-08-23T03:52:00.737Z,99818.48
2018-08-23T03:54:30.756Z,99815.77
2018-08-23T03:57:12.589Z,99812.52
2018-08-23T03:59:43.900Z,99814.69
2018-08-23T04:02:13.540Z,99812.80
2018-08-23T04:04:42.383Z,99818.24
2018-08-23T04:07:11.584Z,99814.98
2018-08-23T04:09:40.385Z,99807.10
2018-08-23T04:12:09.521Z,99813.09
2018-08-23T04:14:38.652Z,99815.78
2018-08-23T04:17:09.328Z,99802.78
2018-08-23T04:19:42.257Z,99801.41
2018-08-23T04:22:10.952Z,99803.84
2018-08-23T04:24:44.760Z,99806.84
2018-08-23T04:27:13.450Z,99803.84
2018-08-23T04:29:46.340Z,99806.55
2018-08-23T04:32:18.316Z,99801.42
2018-08-23T04:34:46.916Z,99805.19
2018-08-23T04:37:15.535Z,99806.03
2018-08-23T04:39:49.694Z,99804.67
2018-08-23T04:42:18.749Z,99807.36
2018-08-23T04:44:52.685Z,99807.11
2018-08-23T04:47:22.208Z,99808.48
2018-08-23T04:49:51.578Z,99811.48
2018-08-23T04:52:20.525Z,99806.31
2018-08-23T04:54:49.265Z,99809.60
2018-08-23T04:57:17.904Z,99801.18
2018-08-23T04:59:46.597Z,99799.58
2018-08-23T05:02:15.290Z,99802.00
2018-08-23T05:04:44.546Z,99803.07
2018-08-23T05:07:13.795Z,99800.33
2018-08-23T05:09:43.013Z,99804.61
2018-08-23T05:12:12.205Z,99799.41
2018-08-23T05:14:42.025Z,99800.44
2018-08-23T05:17:10.669Z,99794.35
2018-08-23T05:19:39.332Z,99796.45
2018-08-23T05:22:08.535Z,99796.36
2018-08-23T05:24:38.029Z,99798.69
2018-08-23T05:27:07.193Z,99788.42
2018-08-23T05:29:36.448Z,99787.38
2018-08-23T05:32:05.784Z,99791.06
2018-08-23T05:34:34.989Z,99784.17
2018-08-23T05:37:04.238Z,99781.84
2018-08-23T05:39:45.181Z,99779.70
2018-08-23T05:42:14.414Z,99774.57
2018-08-23T05:44:43.741Z,99782.56
2018-08-23T05:47:13.064Z,99769.22
2018-08-23T05:49:42.316Z,99779.55
2018-08-23T05:52:11.588Z,99780.89
2018-08-23T05:54:40.852Z,99772.67
2018-08-23T05:57:10.127Z,99778.73
2018-08-23T05:59:39.288Z,99773.75
2018-08-23T06:02:08.795Z,99774.39
2018-08-23T06:04:42.657Z,99770.38
2018-08-23T06:07:11.905Z,99775.91
2018-08-23T06:09:42.007Z,99776.67
2018-08-23T06:12:11.178Z,99772.58
2018-08-23T06:14:40.396Z,99780.20
2018-08-23T06:17:09.962Z,99774.81
2018-08-23T06:19:39.146Z,99773.27
2018-08-23T06:22:08.376Z,99769.00
2018-08-23T06:24:37.546Z,99768.20
2018-08-23T06:27:06.809Z,99763.34
2018-08-23T06:29:36.597Z,99759.80
2018-08-23T06:32:08.668Z,99756.84
2018-08-23T06:34:46.765Z,99759.02
2018-08-23T06:37:17.456Z,99754.73
2018-08-23T06:39:47.120Z,99747.56
2018-08-23T06:42:16.784Z,99753.83
2018-08-23T06:44:50.004Z,99755.84
2018-08-23T06:47:21.560Z,99758.35
2018-08-23T06:49:51.827Z,99752.14
2018-08-23T06:52:29.680Z,99753.27
2018-08-23T06:54:58.686Z,99757.25
2018-08-23T06:57:29.689Z,99765.85
2018-08-23T06:59:58.904Z,99764.41
2018-08-23T07:02:28.389Z,99757.39
2018-08-23T07:04:57.393Z,99756.22
2018-08-23T07:07:26.348Z,99753.92
2018-08-23T07:09:55.296Z,99747.63
2018-08-23T07:12:24.782Z,99745.77
2018-08-23T07:14:53.681Z,99743.90
2018-08-23T07:17:26.566Z,99739.74
2018-08-23T07:19:55.740Z,99742.97
2018-08-23T07:22:26.620Z,99743.23
2018-08-23T07:24:57.214Z,99740.89
2018-08-23T07:27:26.285Z,99741.94
2018-08-23T07:29:57.745Z,99742.87
2018-08-23T07:32:27.913Z,99744.25
2018-08-23T07:35:04.980Z,99736.03
2018-08-23T07:37:36.104Z,99728.13
2018-08-23T07:40:09.555Z,99731.91
2018-08-23T07:42:39.337Z,99736.56
2018-08-23T07:45:09.040Z,99739.35
2018-08-23T07:47:39.680Z,99739.44
2018-08-23T07:50:08.683Z,99741.53
2018-08-23T07:52:38.298Z,99742.84
2018-08-23T07:55:07.844Z,99749.90
2018-08-23T07:57:37.384Z,99749.05
2018-08-23T08:00:30.039Z,99746.17
2018-08-23T08:02:58.908Z,99741.08
2018-08-23T08:05:31.472Z,99741.48
2018-08-23T08:08:00.660Z,99737.38
2018-08-23T08:10:41.533Z,99738.77
2018-08-23T08:13:10.853Z,99745.73
2018-08-23T08:15:39.753Z,99739.98
2018-08-23T08:18:14.889Z,99740.42
2018-08-23T08:20:47.917Z,99737.23
2018-08-23T08:23:17.700Z,99726.89
2018-08-23T08:25:46.631Z,99730.12
2018-08-23T08:28:17.127Z,99722.94
2018-08-23T08:30:47.176Z,99727.14
2018-08-23T08:33:20.283Z,99729.33
2018-08-23T08:35:49.440Z,99725.24
2018-08-23T08:38:18.349Z,99730.56
2018-08-23T08:40:48.368Z,99727.41
2018-08-23T08:43:17.225Z,99724.39
2018-08-23T08:45:46.108Z,99724.33
2018-08-23T08:48:35.601Z,99725.66
2018-08-23T08:51:19.987Z,99720.17
2018-08-23T08:53:48.960Z,99722.17
2018-08-23T08:56:22.990Z,99718.02
2018-08-23T08:58:52.261Z,99716.34
2018-08-23T09:01:21.438Z,99703.58
2018-08-23T09:03:50.479Z,99698.04
2018-08-23T09:06:29.343Z,99694.45
2018-08-23T09:08:58.417Z,99689.98
2018-08-23T09:11:28.959Z,99686.58
2018-08-23T09:14:01.700Z,99688.48
2018-08-23T09:16:30.857Z,99682.97
2018-08-23T09:19:01.543Z,99680.37
2018-08-23T09:21:31.061Z,99684.44
2018-08-23T09:24:12.102Z,99680.67
2018-08-23T09:26:41.484Z,99678.05
2018-08-23T09:29:22.070Z,99674.25
2018-08-23T09:31:51.293Z,99670.44
2018-08-23T09:34:21.009Z,99667.13
2018-08-23T09:36:50.580Z,99665.44
2018-08-23T09:39:19.756Z,99660.75
2018-08-23T09:41:49.149Z,99654.73
2018-08-23T09:44:19.113Z,99650.27
2018-08-23T09:46:52.675Z,99650.27
2018-08-23T09:49:22.697Z,99656.59
2018-08-23T09:51:51.844Z,99644.02
2018-08-23T09:54:26.427Z,99650.17
2018-08-23T09:56:56.093Z,99650.24
2018-08-23T09:59:25.741Z,99644.58
2018-08-23T10:02:00.235Z,99642.78
2018-08-23T10:04:34.632Z,99645.39
2018-08-23T10:07:09.069Z,99643.58
2018-08-23T10:09:43.636Z,99638.23
2018-08-23T10:12:18.109Z,99639.30
2018-08-23T10:14:52.512Z,99634.83
2018-08-23T10:17:27.253Z,99633.19
2018-08-23T10:20:01.701Z,99625.67
2018-08-23T10:22:33.821Z,99626.32
2018-08-23T10:25:08.549Z,99624.73
2018-08-23T10:27:37.804Z,99621.80
2018-08-23T10:30:09.619Z,99618.73
2018-08-23T10:32:39.022Z,99617.52
2018-08-23T10:35:08.320Z,99619.40
2018-08-23T10:37:37.489Z,99617.16
2018-08-23T10:40:07.006Z,99612.77
2018-08-23T10:42:36.264Z,99612.06
2018-08-23T10:45:05.524Z,99608.66
2018-08-23T10:47:40.053Z,99603.11
2018-08-23T10:50:09.305Z,99600.67
2018-08-23T10:52:38.564Z,99596.13
2018-08-23T10:55:08.259Z,99604.14
2018-08-23T10:57:37.776Z,99602.69
2018-08-23T11:00:07.396Z,99598.00
2018-08-23T11:02:36.797Z,99593.62
2018-08-23T11:05:06.063Z,99588.50
2018-08-23T11:07:41.129Z,99586.03
2018-08-23T11:10:15.873Z,99591.16
2018-08-23T11:12:51.144Z,99591.63
2018-08-23T11:15:25.985Z,99590.13
2018-08-23T11:18:00.770Z,99593.91
2018-08-23T11:20:31.624Z,99587.40
2018-08-23T11:23:00.857Z,99590.76
2018-08-23T11:25:30.329Z,99584.53
2018-08-23T11:28:03.660Z,99580.00
2018-08-23T11:30:32.961Z,99578.02
2018-08-23T11:33:06.358Z,99578.80
2018-08-23T11:35:35.749Z,99580.09
2018-08-23T11:38:06.337Z,99577.23
2018-08-23T11:40:35.576Z,99567.06
2018-08-23T11:43:04.928Z,99568.33
2018-08-23T11:45:34.578Z,99564.08
2018-08-23T11:48:03.826Z,99561.84
2018-08-23T11:50:32.968Z,99563.61
2018-08-23T11:53:02.202Z,99550.92
2018-08-23T11:55:31.550Z,99551.86
2018-08-23T11:58:00.761Z,99548.19
2018-08-23T12:00:30.121Z,99546.70
2018-08-23T12:02:59.305Z,99542.80
2018-08-23T12:05:28.502Z,99533.51
2018-08-23T12:07:57.704Z,99536.07
2018-08-23T12:10:26.909Z,99531.11
2018-08-23T12:12:56.220Z,99529.30
2018-08-23T12:15:28.897Z,99523.72
2018-08-23T12:17:58.688Z,99516.83
2018-08-23T12:20:28.223Z,99517.96
2018-08-23T12:22:57.426Z,99515.01
2018-08-23T12:25:26.587Z,99503.19
2018-08-23T12:27:59.456Z,99501.38
2018-08-23T12:30:29.269Z,99499.03
2018-08-23T12:32:58.400Z,99500.87
2018-08-23T12:35:28.072Z,99495.42
2018-08-23T12:38:03.016Z,99491.16
2018-08-23T12:40:38.112Z,99492.03
2018-08-23T12:43:09.197Z,99488.51
2018-08-23T12:45:43.692Z,99481.86
2018-08-23T12:48:14.164Z,99473.78
2018-08-23T12:50:44.456Z,99474.75
2018-08-23T12:53:13.724Z,99473.78
2018-08-23T12:55:43.082Z,99476.77
2018-08-23T12:58:13.348Z,99468.55
2018-08-23T13:00:43.165Z,99462.24
2018-08-23T13:03:12.476Z,99462.06
2018-08-23T13:05:41.624Z,99463.16
2018-08-23T13:08:10.912Z,99464.19
2018-08-23T13:10:40.246Z,99462.24
2018-08-23T13:13:09.404Z,99454.00
2018-08-23T13:15:38.584Z,99457.48
2018-08-23T13:18:07.820Z,99451.14
2018-08-23T13:20:36.980Z,99451.31
2018-08-23T13:23:06.301Z,99443.79
2018-08-23T13:25:35.563Z,99438.91
2018-08-23T13:28:04.842Z,99436.23
2018-08-23T13:30:34.037Z,99433.73
2018-08-23T13:33:03.293Z,99434.59
2018-08-23T13:35:33.173Z,99433.48
2018-08-23T13:38:02.618Z,99425.95
2018-08-23T13:40:31.982Z,99428.14
2018-08-23T13:43:01.192Z,99422.59
2018-08-23T13:45:30.372Z,99422.20
2018-08-23T13:48:00.132Z,99415.00
2018-08-23T13:50:29.276Z,99407.85
2018-08-23T13:52:58.500Z,99402.61
2018-08-23T13:55:27.678Z,99407.13
2018-08-23T13:57:57.156Z,99398.65
2018-08-23T14:00:31.648Z,99399.85
2018-08-23T14:03:01.152Z,99397.48
2018-08-23T14:05:30.302Z,99395.30
2018-08-23T14:07:59.544Z,99394.41
2018-08-23T14:10:28.728Z,99393.04
2018-08-23T14:12:58.021Z,99389.27
2018-08-23T14:15:32.868Z,99388.27
2018-08-23T14:18:02.184Z,99391.39
2018-08-23T14:20:31.997Z,99385.64
2018-08-23T14:23:01.932Z,99378.70
2018-08-23T14:25:31.138Z,99376.71
2018-08-23T14:28:00.368Z,99373.01
2018-08-23T14:30:29.544Z,99371.82
2018-08-23T14:32:58.760Z,99367.05
2018-08-23T14:35:28.157Z,99367.02
2018-08-23T14:37:57.360Z,99363.94
2018-08-23T14:40:26.608Z,99359.52
2018-08-23T14:42:56.341Z,99356.09
2018-08-23T14:45:32.705Z,99355.30
2018-08-23T14:48:07.155Z,99344.45
2018-08-23T14:50:36.978Z,99338.05
2018-08-23T14:53:07.701Z,99344.59
2018-08-23T14:55:42.456Z,99331.20
2018-08-23T14:58:12.121Z,99328.07
2018-08-23T15:00:41.940Z,99330.44
2018-08-23T15:03:11.192Z,99325.45
2018-08-23T15:05:40.377Z,99320.65
2018-08-23T15:08:09.620Z,99317.88
2018-08-23T15:10:38.768Z,99313.69
2018-08-23T15:13:07.980Z,99307.86
2018-08-23T15:15:42.352Z,99318.59
2018-08-23T15:18:11.629Z,99316.47
2018-08-23T15:20:40.903Z,99311.22
2018-08-23T15:23:10.562Z,99311.76
2018-08-23T15:25:39.740Z,99307.98
2018-08-23T15:28:09.072Z,99305.98
2018-08-23T15:30:38.240Z,99302.05
2018-08-23T15:33:07.569Z,99291.34
2018-08-23T15:35:37.057Z,99299.64
2018-08-23T15:38:06.536Z,99306.69
2018-08-23T15:40:36.023Z,99300.72
2018-08-23T15:43:05.208Z,99303.29
2018-08-23T15:45:34.425Z,99293.73
2018-08-23T15:48:03.687Z,99296.44
2018-08-23T15:50:33.651Z,99293.25
2018-08-23T15:53:02.896Z,99298.31
2018-08-23T15:55:32.267Z,99291.36
2018-08-23T15:58:01.617Z,99290.67
2018-08-23T16:00:36.050Z,99285.72
2018-08-23T16:03:05.964Z,99282.08
2018-08-23T16:05:35.572Z,99283.61
2018-08-23T16:08:05.252Z,99284.34
2018-08-23T16:10:34.410Z,99274.98
2018-08-23T16:13:03.857Z,99274.19
2018-08-23T16:15:33.400Z,99272.53
2018-08-23T16:18:07.928Z,99271.55
2018-08-23T16:20:42.412Z,99270.89
2018-08-23T16:23:11.913Z,99267.95
2018-08-23T16:25:42.436Z,99261.34
2018-08-23T16:28:11.700Z,99270.17
2018-08-23T16:30:42.356Z,99265.88
2018-08-23T16:33:12.432Z,99259.23
2018-08-23T16:35:42.236Z,99257.84
2018-08-23T16:38:11.980Z,99253.41
2018-08-23T16:40:41.222Z,99256.70
2018-08-23T16:43:10.803Z,99262.23
2018-08-23T16:45:39.988Z,99257.43
2018-08-23T16:48:09.280Z,99257.59
2018-08-23T16:50:38.516Z,99259.09
2018-08-23T16:53:07.757Z,99255.20
2018-08-23T16:55:37.116Z,99256.33
2018-08-23T16:58:06.360Z,99256.01
2018-08-23T17:00:35.689Z,99246.81
2018-08-23T17:03:04.956Z,99244.67
2018-08-23T17:05:34.115Z,99242.41
2018-08-23T17:08:03.412Z,99248.05
2018-08-23T17:10:32.950Z,99243.77
2018-08-23T17:13:02.101Z,99237.41
2018-08-23T17:15:36.740Z,99239.44
2018-08-23T17:18:06.086Z,99240.99
2018-08-23T17:20:35.396Z,99251.75
2018-08-23T17:23:04.660Z,99253.68
2018-08-23T17:25:34.005Z,99251.28
2018-08-23T17:28:03.249Z,99252.08
2018-08-23T17:30:32.415Z,99256.42
2018-08-23T17:33:01.607Z,99256.84
2018-08-23T17:35:30.814Z,99259.22
2018-08-23T17:38:00.044Z,99253.42
2018-08-23T17:40:29.256Z,99258.67
2018-08-23T17:42:58.595Z,99254.06
2018-08-23T17:45:27.760Z,99253.70
2018-08-23T17:47:57.181Z,99256.89
2018-08-23T17:50:26.476Z,99263.34
2018-08-23T17:52:55.881Z,99261.09
2018-08-23T17:55:25.152Z,99264.95
2018-08-23T17:57:54.428Z,99264.45
2018-08-23T18:00:23.597Z,99264.17
2018-08-23T18:02:52.785Z,99262.03
2018-08-23T18:05:22.015Z,99264.48
2018-08-23T18:07:51.276Z,99261.78
2018-08-23T18:10:20.572Z,99271.43
2018-08-23T18:12:49.721Z,99269.16
2018-08-23T18:15:19.180Z,99266.55
2018-08-23T18:17:48.682Z,99268.83
2018-08-23T18:20:18.017Z,99263.58
2018-08-23T18:22:47.598Z,99264.63
2018-08-23T18:25:16.736Z,99270.24
2018-08-23T18:27:45.892Z,99265.08
2018-08-23T18:30:15.121Z,99272.42
2018-08-23T18:32:44.373Z,99270.20
2018-08-23T18:35:13.598Z,99272.59
2018-08-23T18:37:42.931Z,99274.62
2018-08-23T18:40:13.043Z,99266.70
2018-08-23T18:42:42.448Z,99265.55
2018-08-23T18:45:11.662Z,99273.68
2018-08-23T18:47:40.905Z,99275.54
2018-08-23T18:50:10.132Z,99280.42
2018-08-23T18:52:39.512Z,99283.74
2018-08-23T18:55:08.801Z,99288.30
2018-08-23T18:57:37.948Z,99276.45
2018-08-23T19:00:07.488Z,99287.00
2018-08-23T19:02:36.749Z,99289.67
2018-08-23T19:05:06.242Z,99286.47
2018-08-23T19:07:43.150Z,99285.63
2018-08-23T19:10:12.841Z,99288.50
2018-08-23T19:12:42.056Z,99283.80
2018-08-23T19:15:11.239Z,99274.63
2018-08-23T19:17:42.493Z,99278.19
2018-08-23T19:20:13.066Z,99282.16
2018-08-23T19:22:42.216Z,99273.25
2018-08-23T19:25:11.632Z,99276.42
2018-08-23T19:27:41.021Z,99275.78
2018-08-23T19:30:10.463Z,99276.27
2018-08-23T19:32:39.624Z,99279.41
2018-08-23T19:35:08.837Z,99287.08
2018-08-23T19:37:38.155Z,99290.95
2018-08-23T19:40:07.579Z,99289.66
2018-08-23T19:42:37.124Z,99289.59
2018-08-23T19:45:06.353Z,99285.52
2018-08-23T19:47:40.936Z,99281.58
2018-08-23T19:50:11.173Z,99277.91
2018-08-23T19:52:40.333Z,99282.34
2018-08-23T19:55:10.528Z,99280.03
2018-08-23T19:57:39.750Z,99270.56
2018-08-23T20:00:10.948Z,99270.98
2018-08-23T20:02:40.266Z,99261.45
2018-08-23T20:05:09.461Z,99261.13
2018-08-23T20:07:38.679Z,99261.31
2018-08-23T20:10:08.775Z,99261.23
2018-08-23T20:12:38.102Z,99260.77
2018-08-23T20:15:08.516Z,99263.03
2018-08-23T20:17:38.596Z,99266.34
2018-08-23T20:20:09.747Z,99262.54
2018-08-23T20:22:39.125Z,99262.87
2018-08-23T20:25:08.527Z,99256.59
2018-08-23T20:27:37.725Z,99257.30
2018-08-23T20:30:07.212Z,99258.00
2018-08-23T20:32:37.118Z,99255.92
2018-08-23T20:35:06.372Z,99262.90
2018-08-23T20:37:35.571Z,99265.08
2018-08-23T20:40:05.516Z,99266.10
2018-08-23T20:42:34.858Z,99263.44
2018-08-23T20:45:04.161Z,99264.54
2018-08-23T20:47:33.401Z,99270.49
2018-08-23T20:50:02.596Z,99269.06
2018-08-23T20:52:31.789Z,99272.55
2018-08-23T20:55:01.243Z,99270.23
2018-08-23T20:57:30.490Z,99275.18
2018-08-23T20:59:59.729Z,99274.55
2018-08-23T21:02:29.248Z,99270.66
2018-08-23T21:04:58.392Z,99271.52
2018-08-23T21:07:27.645Z,99268.47
2018-08-23T21:09:57.003Z,99270.41
2018-08-23T21:12:26.343Z,99271.42
2018-08-23T21:14:55.484Z,99272.76
2018-08-23T21:17:24.854Z,99273.09
2018-08-23T21:19:54.026Z,99274.63
2018-08-23T21:22:23.232Z,99284.22
2018-08-23T21:24:52.460Z,99273.56
2018-08-23T21:27:21.692Z,99272.52
2018-08-23T21:29:50.877Z,99275.97
2018-08-23T21:32:20.101Z,99276.56
2018-08-23T21:34:49.300Z,99269.66
2018-08-23T21:37:18.448Z,99268.30
2018-08-23T21:39:47.600Z,99272.73
2018-08-23T21:42:16.744Z,99268.97
2018-08-23T21:44:45.995Z,99278.66
2018-08-23T21:47:16.361Z,99284.37
2018-08-23T21:49:45.721Z,99283.89
2018-08-23T21:52:14.978Z,99275.41
2018-08-23T21:54:44.191Z,99271.44
2018-08-23T21:57:13.340Z,99281.70
2018-08-23T21:59:42.516Z,99277.04
2018-08-23T22:02:20.295Z,99270.49
2018-08-23T22:04:54.832Z,99272.64
2018-08-23T22:07:24.021Z,99261.65
2018-08-23T22:09:54.365Z,99250.67
2018-08-23T22:12:25.524Z,99249.11
2018-08-23T22:14:55.724Z,99255.56
2018-08-23T22:17:25.316Z,99256.73
2018-08-23T22:19:54.451Z,99252.99
2018-08-23T22:22:23.725Z,99247.37
2018-08-23T22:24:53.252Z,99252.09
2018-08-23T22:27:22.476Z,99252.48
2018-08-23T22:29:51.711Z,99247.91
2018-08-23T22:32:20.892Z,99255.56
2018-08-23T22:34:50.069Z,99252.75
2018-08-23T22:37:19.320Z,99248.86
2018-08-23T22:39:48.480Z,99249.38
2018-08-23T22:42:17.742Z,99251.95
2018-08-23T22:44:46.900Z,99241.14
2018-08-23T22:47:16.213Z,99240.17
2018-08-23T22:49:45.471Z,99243.76
2018-08-23T22:52:14.832Z,99243.84
2018-08-23T22:54:44.056Z,99237.81
2018-08-23T22:57:13.237Z,99241.03
2018-08-23T22:59:42.493Z,99242.43
2018-08-23T23:02:15.875Z,99242.94
2018-08-23T23:04:45.125Z,99240.50
2018-08-23T23:07:14.336Z,99236.23
2018-08-23T23:09:43.502Z,99232.87
2018-08-23T23:12:12.658Z,99227.80
2018-08-23T23:14:41.844Z,99225.20
2018-08-23T23:17:11.584Z,99230.58
2018-08-23T23:19:40.779Z,99218.86
2018-08-23T23:22:09.958Z,99213.23
2018-08-23T23:25:12.248Z,99206.08
2018-08-23T23:27:41.417Z,99213.04
2018-08-23T23:30:10.624Z,99216.76
2018-08-23T23:32:39.829Z,99226.80
2018-08-23T23:35:09.029Z,99231.04
2018-08-23T23:37:38.266Z,99231.69
2018-08-23T23:40:07.654Z,99228.33
2018-08-23T23:42:37.397Z,99223.56
2018-08-23T23:45:07.748Z,99226.81
2018-08-23T23:47:37.366Z,99219.95
2018-08-23T23:50:07.504Z,99222.22
2018-08-23T23:52:36.714Z,99216.14
2018-08-23T23:55:06.504Z,99214.00
2018-08-23T23:57:36.562Z,99228.50
